sensor_id;sensor_type;location;lat;lon;timestamp;temperature;humidity
15239;DHT22;7722;53.274;9.500;2023-10-08T07:17:31;11.70;99.90
15239;DHT22;7722;53.274;9.500;2023-10-08T07:20:06;11.70;99.90
15239;DHT22;7722;53.274;9.500;2023-10-08T07:22:39;11.60;99.90
15239;DHT22;7722;53.274;9.500;2023-10-08T07:25:09;11.70;99.90
15239;DHT22;7722;53.274;9.500;2023-10-08T07:27:39;11.60;99.90
15239;DHT22;7722;53.274;9.500;2023-10-08T07:30:07;11.70;99.90
15239;DHT22;7722;53.274;9.500;2023-10-08T07:32:37;11.70;99.90
15239;DHT22;7722;53.274;9.500;2023-10-08T07:35:05;11.70;99.90
15239;DHT22;7722;53.274;9.500;2023-10-08T07:37:48;11.60;99.90
15239;DHT22;7722;53.274;9.500;2023-10-08T07:40:16;11.50;99.90
15239;DHT22;7722;53.274;9.500;2023-10-08T07:42:46;11.30;99.90
15239;DHT22;7722;53.274;9.500;2023-10-08T07:45:17;11.40;99.90
15239;DHT22;7722;53.274;9.500;2023-10-08T07:47:48;11.40;99.90
15239;DHT22;7722;53.274;9.500;2023-10-08T07:50:15;11.50;99.90
15239;DHT22;7722;53.274;9.500;2023-10-08T07:52:42;11.70;99.90
15239;DHT22;7722;53.274;9.500;2023-10-08T07:55:10;11.60;99.90
15239;DHT22;7722;53.274;9.500;2023-10-08T07:57:43;11.60;99.90
15239;DHT22;7722;53.274;9.500;2023-10-08T08:00:11;11.60;99.90
15239;DHT22;7722;53.274;9.500;2023-10-08T08:02:49;11.60;99.90
15239;DHT22;7722;53.274;9.500;2023-10-08T08:05:17;11.70;99.90
15239;DHT22;7722;53.274;9.500;2023-10-08T08:07:46;11.70;99.90
15239;DHT22;7722;53.274;9.500;2023-10-08T08:10:15;11.80;99.90
15239;DHT22;7722;53.274;9.500;2023-10-08T08:12:44;11.90;99.90
15239;DHT22;7722;53.274;9.500;2023-10-08T08:15:11;12.10;99.90
15239;DHT22;7722;53.274;9.500;2023-10-08T08:17:41;12.10;99.90
15239;DHT22;7722;53.274;9.500;2023-10-08T08:20:11;12.30;99.90
15239;DHT22;7722;53.274;9.500;2023-10-08T08:22:44;12.40;99.90
15239;DHT22;7722;53.274;9.500;2023-10-08T08:25:15;12.30;99.90
15239;DHT22;7722;53.274;9.500;2023-10-08T08:27:52;12.30;99.90
15239;DHT22;7722;53.274;9.500;2023-10-08T08:30:19;12.40;99.90
15239;DHT22;7722;53.274;9.500;2023-10-08T08:32:52;12.50;99.90
15239;DHT22;7722;53.274;9.500;2023-10-08T08:35:23;12.50;99.90
15239;DHT22;7722;53.274;9.500;2023-10-08T08:37:50;12.70;99.90
15239;DHT22;7722;53.274;9.500;2023-10-08T08:40:18;12.60;99.90
15239;DHT22;7722;53.274;9.500;2023-10-08T08:42:49;12.50;99.90
15239;DHT22;7722;53.274;9.500;2023-10-08T08:45:19;12.50;99.90
15239;DHT22;7722;53.274;9.500;2023-10-08T08:47:47;12.60;99.90
15239;DHT22;7722;53.274;9.500;2023-10-08T08:50:14;12.50;99.90
15239;DHT22;7722;53.274;9.500;2023-10-08T08:52:44;12.60;99.90
15239;DHT22;7722;53.274;9.500;2023-10-08T08:55:12;12.70;99.90
15239;DHT22;7722;53.274;9.500;2023-10-08T08:57:41;12.80;99.90
15239;DHT22;7722;53.274;9.500;2023-10-08T09:00:11;12.80;99.90
15239;DHT22;7722;53.274;9.500;2023-10-08T09:02:40;13.00;99.90
15239;DHT22;7722;53.274;9.500;2023-10-08T09:05:08;13.20;99.90
15239;DHT22;7722;53.274;9.500;2023-10-08T09:07:58;13.40;99.90
15239;DHT22;7722;53.274;9.500;2023-10-08T09:10:29;13.50;99.90
15239;DHT22;7722;53.274;9.500;2023-10-08T09:13:03;13.50;99.90
15239;DHT22;7722;53.274;9.500;2023-10-08T09:15:31;13.60;99.90
15239;DHT22;7722;53.274;9.500;2023-10-08T09:17:59;13.70;99.90
15239;DHT22;7722;53.274;9.500;2023-10-08T09:20:27;13.90;99.90
15239;DHT22;7722;53.274;9.500;2023-10-08T09:23:09;14.10;99.90
15239;DHT22;7722;53.274;9.500;2023-10-08T09:25:38;14.20;99.90
15239;DHT22;7722;53.274;9.500;2023-10-08T09:28:05;14.40;99.90
15239;DHT22;7722;53.274;9.500;2023-10-08T09:30:34;14.60;99.90
15239;DHT22;7722;53.274;9.500;2023-10-08T09:33:05;14.50;99.90
15239;DHT22;7722;53.274;9.500;2023-10-08T09:35:33;14.60;99.90
15239;DHT22;7722;53.274;9.500;2023-10-08T09:38:01;14.90;99.90
15239;DHT22;7722;53.274;9.500;2023-10-08T09:40:30;15.10;99.90
15239;DHT22;7722;53.274;9.500;2023-10-08T09:42:59;15.30;99.90
15239;DHT22;7722;53.274;9.500;2023-10-08T09:45:26;15.40;99.90
15239;DHT22;7722;53.274;9.500;2023-10-08T09:47:55;15.00;99.90
15239;DHT22;7722;53.274;9.500;2023-10-08T09:50:37;14.90;99.90
15239;DHT22;7722;53.274;9.500;2023-10-08T09:53:09;14.90;99.90
15239;DHT22;7722;53.274;9.500;2023-10-08T09:55:45;15.40;99.90
15239;DHT22;7722;53.274;9.500;2023-10-08T09:58:15;15.60;99.90
15239;DHT22;7722;53.274;9.500;2023-10-08T10:00:43;15.80;99.90
15239;DHT22;7722;53.274;9.500;2023-10-08T10:03:14;16.00;99.90
15239;DHT22;7722;53.274;9.500;2023-10-08T10:05:44;16.20;99.90
15239;DHT22;7722;53.274;9.500;2023-10-08T10:08:11;16.00;99.90
15239;DHT22;7722;53.274;9.500;2023-10-08T10:10:41;15.70;99.90
15239;DHT22;7722;53.274;9.500;2023-10-08T10:13:17;15.70;99.90
15239;DHT22;7722;53.274;9.500;2023-10-08T10:15:47;16.00;99.90
15239;DHT22;7722;53.274;9.500;2023-10-08T10:18:15;16.10;99.90
15239;DHT22;7722;53.274;9.500;2023-10-08T10:20:46;16.10;99.90
15239;DHT22;7722;53.274;9.500;2023-10-08T10:23:35;15.90;99.90
15239;DHT22;7722;53.274;9.500;2023-10-08T10:26:03;16.20;99.90
15239;DHT22;7722;53.274;9.500;2023-10-08T10:28:32;16.50;99.90
15239;DHT22;7722;53.274;9.500;2023-10-08T10:30:59;16.00;99.90
15239;DHT22;7722;53.274;9.500;2023-10-08T10:33:32;16.30;99.90
15239;DHT22;7722;53.274;9.500;2023-10-08T10:36:00;16.80;99.90
15239;DHT22;7722;53.274;9.500;2023-10-08T10:38:31;16.80;99.90
15239;DHT22;7722;53.274;9.500;2023-10-08T10:40:59;16.70;99.90
15239;DHT22;7722;53.274;9.500;2023-10-08T10:43:36;17.00;99.90
15239;DHT22;7722;53.274;9.500;2023-10-08T10:46:06;16.90;99.90
15239;DHT22;7722;53.274;9.500;2023-10-08T10:48:54;16.90;99.90
15239;DHT22;7722;53.274;9.500;2023-10-08T10:51:44;16.90;99.90
15239;DHT22;7722;53.274;9.500;2023-10-08T10:54:13;17.40;99.90
15239;DHT22;7722;53.274;9.500;2023-10-08T10:56:46;17.60;99.90
15239;DHT22;7722;53.274;9.500;2023-10-08T10:59:27;17.70;99.90
15239;DHT22;7722;53.274;9.500;2023-10-08T11:01:53;17.60;99.90
15239;DHT22;7722;53.274;9.500;2023-10-08T11:04:33;17.20;99.90
15239;DHT22;7722;53.274;9.500;2023-10-08T11:07:11;16.80;99.90
15239;DHT22;7722;53.274;9.500;2023-10-08T11:09:38;16.30;99.90
15239;DHT22;7722;53.274;9.500;2023-10-08T11:12:10;16.10;99.90
15239;DHT22;7722;53.274;9.500;2023-10-08T11:14:42;15.90;99.90
15239;DHT22;7722;53.274;9.500;2023-10-08T11:17:12;15.40;99.90
15239;DHT22;7722;53.274;9.500;2023-10-08T11:19:41;15.40;99.90
15239;DHT22;7722;53.274;9.500;2023-10-08T11:22:11;15.70;99.90
15239;DHT22;7722;53.274;9.500;2023-10-08T11:24:42;15.80;99.90
15239;DHT22;7722;53.274;9.500;2023-10-08T11:27:13;16.20;99.90
15239;DHT22;7722;53.274;9.500;2023-10-08T11:29:47;16.40;99.90
15239;DHT22;7722;53.274;9.500;2023-10-08T11:32:15;16.70;99.60
15239;DHT22;7722;53.274;9.500;2023-10-08T11:34:45;16.70;99.90
15239;DHT22;7722;53.274;9.500;2023-10-08T11:37:20;16.90;99.90
15239;DHT22;7722;53.274;9.500;2023-10-08T11:39:52;17.10;99.70
15239;DHT22;7722;53.274;9.500;2023-10-08T11:42:23;17.10;99.20
15239;DHT22;7722;53.274;9.500;2023-10-08T11:45:11;17.00;97.80
15239;DHT22;7722;53.274;9.500;2023-10-08T11:47:51;17.00;98.60
15239;DHT22;7722;53.274;9.500;2023-10-08T11:50:24;16.80;99.00
15239;DHT22;7722;53.274;9.500;2023-10-08T11:52:59;17.20;98.50
15239;DHT22;7722;53.274;9.500;2023-10-08T11:55:33;17.20;97.20
15239;DHT22;7722;53.274;9.500;2023-10-08T11:58:01;17.20;98.90
15239;DHT22;7722;53.274;9.500;2023-10-08T12:00:37;17.00;97.40
15239;DHT22;7722;53.274;9.500;2023-10-08T12:05:37;17.50;98.40
15239;DHT22;7722;53.274;9.500;2023-10-08T12:08:13;18.30;96.30
15239;DHT22;7722;53.274;9.500;2023-10-08T12:10:42;18.70;97.10
15239;DHT22;7722;53.274;9.500;2023-10-08T12:13:09;18.90;94.50
15239;DHT22;7722;53.274;9.500;2023-10-08T12:15:38;18.30;93.80
15239;DHT22;7722;53.274;9.500;2023-10-08T12:18:07;17.50;94.30
15239;DHT22;7722;53.274;9.500;2023-10-08T12:20:41;17.70;98.40
